Impacts METAR Board
IDs:

KTPA - Tampa Intl Arpt, FL, US

Updated at: 2300 UTC 18 Dec 2018
Potential Impact None Slight Moderate High
Time 18/11Z 18/12Z 18/13Z 18/14Z 18/15Z 18/16Z 18/17Z 18/18Z 18/19Z 18/20Z 18/21Z 18/22Z 18/23Z
Temp52 51 54 58 62 64 68 66 67 67 64 67 65
Dewpt50 49 51 49 49 47 43 49 49 47 47 43 51
Altim30.12 30.13 30.14 30.15 30.16 30.16 30.13 30.09 30.08 30.07 30.08 30.07 30.08
VIS10 10 10 10 10 10 10 10 10 10 10 10 10
CIG-- -- -- -- -- -- -- -- -- -- -- -- 220
CoverFEWFEWFEWSCTSCTSCTSCTSCTFEWSCTSCTSCTBKN
FltCatVFRVFRVFRVFRVFRVFRVFRVFRVFRVFRVFRVFRVFR
WX--------------------------
WDir20020360003602402302302100280
WSpd3 0 3 4 5 3 5 6 7 6 5 0 6
WGst-- -- -- -- -- -- -- -- -- -- -- -- --
Raw hourly METARs
KTPA 181053Z 02003KT 10SM FEW250 11/10 A3012 RMK AO2 SLP199 T01110100
KTPA 181153Z 00000KT 10SM FEW250 11/09 A3013 RMK AO2 SLP202 T01060094 10128 20106 53006
KTPA 181253Z 02003KT 10SM FEW220 12/11 A3014 RMK AO2 SLP204 T01220106
KTPA 181353Z 36004KT 10SM SCT250 14/09 A3015 RMK AO2 SLP208 T01440094
KTPA 181453Z VRB05KT 10SM FEW140 SCT250 17/09 A3016 RMK AO2 SLP213 T01670094 53011
KTPA 181553Z VRB03KT 10SM FEW140 SCT250 18/08 A3016 RMK AO2 SLP211 T01780083
KTPA 181653Z 36005KT 10SM FEW180 SCT250 20/06 A3013 RMK AO2 SLP202 T02000061
KTPA 181753Z 24006KT 10SM FEW180 SCT250 19/09 A3009 RMK AO2 SLP189 T01890094 10206 20100 58023
KTPA 181853Z 23007KT 10SM FEW250 19/09 A3008 RMK AO2 SLP185 T01940094
KTPA 181953Z 23006KT 10SM FEW100 SCT250 19/08 A3007 RMK AO2 SLP183 T01940083
KTPA 182053Z 21005KT 10SM FEW100 SCT250 18/08 A3008 RMK AO2 SLP185 T01780083 55004
KTPA 182153Z 00000KT 10SM FEW100 SCT250 19/06 A3007 RMK AO2 SLP183 T01940061
KTPA 182253Z 28006KT 10SM FEW070 SCT130 BKN220 18/11 A3008 RMK AO2 SLP184 T01830106



Page loaded:  23:37 UTC  |   03:37 PM Pacific  |   04:37 PM Mountain  |   05:37 PM Central  |   06:37 PM Eastern

 

ADVISORIES

FORECASTS

FORECASTS

OBSERVATIONS

USER TOOLS

ABOUT US